Manitou, North Dakota
Current Conditions -  °F | °C
As of 11:35 PM on Friday 19 Dec 2014 (Local Time) from K08D Reporting Station
Moderate Fog Moderate Fog  
Wind Chill: 16°   Ceiling: 200
Heat Index: 16°   Visibility: 0.25mi
Dew Point: 16°   Wind: 3mph
Humidity: 100%   Direction: 200°SSW
Pressure: 29.9"   Gusts: NA
Location:  48.3282°N, 102.504°W
Report Text: K08D 200535Z AUTO 20003KT 1/4SM FZFG OVC002 M09/M09 A2990 RMK AO2
Loading
Personal Weather Stations






























Interactive Weather Map New forecast layout! Learn more

10-Day Weather Forecast

Advertisements
Track Severe Weather on mobile